K40B

Clayton Lake Airport

Clayton Lake, Maine, USA
METAR K40B 210916Z AUTO 00000KT 04/04 A2978 RMK AO1 SLP088 T00430042 53013
Observed Flight Rules
Jun-21 @ 09:16 UTC (45 minutes ago)
Temperatures Readings
Current 4°C / 39°F
Dewpoint 4°C / 39°F
Humidity 100%
Altimeter 29.78" Hg
Pressure 1008.8 hPa
Elevation 314
METAR K40B 210916Z AUTO 00000KT 04/04 A2978 RMK AO1 SLP088 T00430042 53013
Observed Flight Rules
Jun-21 @ 09:16 UTC
(45 minutes ago)
Temperature Dewpoint
4°C / 39°F 4°C / 39°F
Humidity Altimeter Pressure
100% 29.78" Hg 1008.8 hPa